createdAt,value
2023-07-24T00:08:42.257Z,2.90
2023-07-24T00:18:46.745Z,3.10
2023-07-24T00:28:51.132Z,2.90
2023-07-24T00:39:53.275Z,3.20
2023-07-24T00:49:59.403Z,3.40
2023-07-24T01:00:05.093Z,3.10
2023-07-24T01:10:08.635Z,3.00
2023-07-24T01:20:14.079Z,3.20
2023-07-24T01:30:22.330Z,3.00
2023-07-24T01:40:25.761Z,3.10
2023-07-24T01:50:28.817Z,3.10
2023-07-24T02:00:32.737Z,3.10
2023-07-24T02:10:39.001Z,2.90
2023-07-24T02:20:42.039Z,3.30
2023-07-24T02:30:45.155Z,3.60
2023-07-24T02:40:48.409Z,3.90
2023-07-24T02:50:51.688Z,4.60
2023-07-24T03:00:54.762Z,4.00
2023-07-24T03:10:58.763Z,3.50
2023-07-24T03:21:04.287Z,4.40
2023-07-24T03:31:07.540Z,3.40
2023-07-24T03:41:10.703Z,3.90
2023-07-24T03:51:13.788Z,3.70
2023-07-24T04:01:16.951Z,3.70
2023-07-24T04:11:20.857Z,3.60
2023-07-24T04:21:24.886Z,3.40
2023-07-24T04:31:27.895Z,4.30
2023-07-24T04:41:31.799Z,3.50
2023-07-24T04:51:36.702Z,3.80
2023-07-24T05:01:39.888Z,4.30
2023-07-24T05:11:46.163Z,4.20
2023-07-24T05:21:49.800Z,4.30
2023-07-24T05:31:53.136Z,4.20
2023-07-24T05:41:56.362Z,4.20
2023-07-24T05:51:59.501Z,4.60
2023-07-24T06:02:02.588Z,4.50
2023-07-24T06:12:06.079Z,4.60
2023-07-24T06:22:09.186Z,4.60
2023-07-24T06:32:12.505Z,4.50
2023-07-24T06:42:15.593Z,5.30
2023-07-24T06:52:19.363Z,5.10
2023-07-24T07:02:22.633Z,5.60
2023-07-24T07:12:25.678Z,5.10
2023-07-24T07:22:28.757Z,4.90
2023-07-24T07:32:31.809Z,5.60
2023-07-24T07:42:35.290Z,5.40
2023-07-24T08:02:43.338Z,5.30
2023-07-24T08:12:46.683Z,5.00
2023-07-24T08:22:49.823Z,5.30
2023-07-24T08:32:54.585Z,4.80
2023-07-24T08:42:58.000Z,4.90
2023-07-24T08:53:02.142Z,4.90
2023-07-24T09:03:05.627Z,5.30
2023-07-24T09:13:12.872Z,5.60
2023-07-24T09:23:19.780Z,5.20
2023-07-24T09:33:38.445Z,4.90
2023-07-24T09:43:43.014Z,6.00
2023-07-24T09:53:58.753Z,7.30
2023-07-24T10:04:03.101Z,6.20
2023-07-24T10:14:06.358Z,6.90
2023-07-24T10:24:09.725Z,7.20
2023-07-24T10:34:12.782Z,6.30
2023-07-24T10:44:16.026Z,6.80
2023-07-24T10:54:22.754Z,6.90
2023-07-24T11:04:25.866Z,6.20
2023-07-24T11:14:29.000Z,5.90
2023-07-24T11:24:32.266Z,6.70
2023-07-24T11:35:01.204Z,7.20
2023-07-24T11:45:04.976Z,7.40
2023-07-24T11:55:09.258Z,7.80
2023-07-24T12:05:12.366Z,7.30
2023-07-24T12:15:16.184Z,7.10
2023-07-24T12:25:19.396Z,8.00
2023-07-24T12:35:22.427Z,7.50
2023-07-24T12:45:25.498Z,7.00
2023-07-24T12:55:30.754Z,7.00
2023-07-24T13:05:34.214Z,7.90
2023-07-24T13:15:37.297Z,8.50
2023-07-24T13:25:40.425Z,8.10
2023-07-24T13:35:43.437Z,8.10
2023-07-24T13:45:46.781Z,7.70
2023-07-24T13:55:49.955Z,7.30
2023-07-24T14:05:53.047Z,7.60
2023-07-24T14:15:56.136Z,8.20
2023-07-24T14:25:59.500Z,8.30
2023-07-24T14:36:05.107Z,7.90
2023-07-24T14:56:11.704Z,8.80
2023-07-24T15:06:14.755Z,8.00
2023-07-24T15:16:18.763Z,8.10
2023-07-24T15:26:26.288Z,9.00
2023-07-24T15:36:30.242Z,8.80
2023-07-24T15:46:33.575Z,8.80
2023-07-24T15:56:37.332Z,8.50
2023-07-24T16:06:40.713Z,8.40
2023-07-24T16:16:44.060Z,8.30
2023-07-24T16:26:48.724Z,8.60
2023-07-24T16:36:51.879Z,8.80
2023-07-24T16:47:11.674Z,9.50
2023-07-24T16:57:16.921Z,8.80
2023-07-24T17:07:20.085Z,8.80
2023-07-24T17:17:23.899Z,9.00
2023-07-24T17:27:27.050Z,9.80
2023-07-24T17:47:40.714Z,10.20
2023-07-24T17:57:48.065Z,10.90
2023-07-24T18:07:52.687Z,10.00
2023-07-24T18:17:58.276Z,10.20
2023-07-24T18:28:01.554Z,8.70
2023-07-24T18:38:05.343Z,8.80
2023-07-24T18:48:10.593Z,8.50
2023-07-24T18:58:13.993Z,8.00
2023-07-24T19:08:17.069Z,7.30
2023-07-24T19:18:20.430Z,7.80
2023-07-24T19:28:23.906Z,6.70
2023-07-24T19:38:27.130Z,8.90
2023-07-24T19:48:30.451Z,5.70
2023-07-24T19:58:37.037Z,6.70
2023-07-24T20:08:40.604Z,6.10
2023-07-24T20:18:44.129Z,5.70
2023-07-24T20:28:48.262Z,5.60
2023-07-24T20:38:51.503Z,7.60
2023-07-24T20:48:54.708Z,5.80
2023-07-24T20:58:57.804Z,6.70
2023-07-24T21:09:01.063Z,3.90
2023-07-24T21:19:04.868Z,4.90
2023-07-24T21:29:08.190Z,4.40
2023-07-24T21:39:11.240Z,4.40
2023-07-24T21:49:14.301Z,4.30
2023-07-24T21:59:42.752Z,6.10
2023-07-24T22:09:45.873Z,5.20
2023-07-24T22:19:49.761Z,6.00
2023-07-24T22:29:54.158Z,6.80
2023-07-24T22:39:58.368Z,5.00
2023-07-24T22:50:01.565Z,5.30
2023-07-24T23:00:06.090Z,5.10
2023-07-24T23:10:09.628Z,4.70
2023-07-24T23:20:13.010Z,4.80
2023-07-24T23:30:16.074Z,5.20
2023-07-24T23:40:19.059Z,4.70
2023-07-24T23:50:22.541Z,5.60
